sensor_id;sensor_type;location;lat;lon;timestamp;pressure;altitude;pressure_sealevel;temperature;humidity
40788;BME280;26497;52.494;7.546;2023-01-29T00:00:33;102268.03;;;5.95;58.27
40788;BME280;26497;52.494;7.546;2023-01-29T00:03:00;102276.50;;;6.09;58.64
40788;BME280;26497;52.494;7.546;2023-01-29T00:05:27;102266.88;;;6.29;58.23
40788;BME280;26497;52.494;7.546;2023-01-29T00:07:55;102271.88;;;6.03;58.23
40788;BME280;26497;52.494;7.546;2023-01-29T00:10:22;102268.69;;;6.10;58.30
40788;BME280;26497;52.494;7.546;2023-01-29T00:12:49;102270.56;;;5.93;58.47
40788;BME280;26497;52.494;7.546;2023-01-29T00:15:17;102267.59;;;5.85;59.10
40788;BME280;26497;52.494;7.546;2023-01-29T00:17:46;102265.69;;;5.81;59.04
40788;BME280;26497;52.494;7.546;2023-01-29T00:20:13;102252.50;;;5.80;59.39
40788;BME280;26497;52.494;7.546;2023-01-29T00:22:41;102250.97;;;5.65;59.75
40788;BME280;26497;52.494;7.546;2023-01-29T00:25:08;102256.75;;;5.58;60.17
40788;BME280;26497;52.494;7.546;2023-01-29T00:27:36;102254.50;;;5.46;60.40
40788;BME280;26497;52.494;7.546;2023-01-29T00:30:05;102242.00;;;5.40;60.62
40788;BME280;26497;52.494;7.546;2023-01-29T00:32:36;102241.13;;;5.40;60.84
40788;BME280;26497;52.494;7.546;2023-01-29T00:35:07;102236.63;;;5.37;60.92
40788;BME280;26497;52.494;7.546;2023-01-29T00:37:34;102236.50;;;5.54;60.36
40788;BME280;26497;52.494;7.546;2023-01-29T00:40:01;102233.88;;;5.54;60.67
40788;BME280;26497;52.494;7.546;2023-01-29T00:42:28;102227.41;;;5.65;59.94
40788;BME280;26497;52.494;7.546;2023-01-29T00:45:13;102216.06;;;5.45;60.07
40788;BME280;26497;52.494;7.546;2023-01-29T00:47:39;102210.97;;;5.48;60.67
40788;BME280;26497;52.494;7.546;2023-01-29T00:50:10;102216.06;;;5.45;60.58
40788;BME280;26497;52.494;7.546;2023-01-29T00:52:37;102209.94;;;5.64;59.99
40788;BME280;26497;52.494;7.546;2023-01-29T00:55:08;102213.72;;;5.51;60.30
40788;BME280;26497;52.494;7.546;2023-01-29T00:57:36;102212.38;;;5.41;60.87
40788;BME280;26497;52.494;7.546;2023-01-29T01:00:05;102210.25;;;5.32;61.16
40788;BME280;26497;52.494;7.546;2023-01-29T01:02:33;102214.66;;;5.34;61.43
40788;BME280;26497;52.494;7.546;2023-01-29T01:05:19;102210.41;;;5.55;60.55
40788;BME280;26497;52.494;7.546;2023-01-29T01:07:48;102221.00;;;5.39;60.50
40788;BME280;26497;52.494;7.546;2023-01-29T01:10:19;102229.06;;;5.43;61.00
40788;BME280;26497;52.494;7.546;2023-01-29T01:12:46;102216.31;;;5.31;60.89
40788;BME280;26497;52.494;7.546;2023-01-29T01:15:14;102209.44;;;5.34;60.85
40788;BME280;26497;52.494;7.546;2023-01-29T01:17:41;102207.66;;;5.32;61.23
40788;BME280;26497;52.494;7.546;2023-01-29T01:20:10;102212.06;;;5.34;60.86
40788;BME280;26497;52.494;7.546;2023-01-29T01:22:38;102219.41;;;5.42;61.21
40788;BME280;26497;52.494;7.546;2023-01-29T01:25:06;102222.59;;;5.74;60.42
40788;BME280;26497;52.494;7.546;2023-01-29T01:27:33;102228.78;;;5.96;60.08
40788;BME280;26497;52.494;7.546;2023-01-29T01:30:03;102219.19;;;5.97;59.58
40788;BME280;26497;52.494;7.546;2023-01-29T01:32:30;102220.09;;;5.97;59.37
40788;BME280;26497;52.494;7.546;2023-01-29T01:34:57;102224.78;;;5.85;59.56
40788;BME280;26497;52.494;7.546;2023-01-29T01:37:24;102218.59;;;5.83;59.81
40788;BME280;26497;52.494;7.546;2023-01-29T01:39:52;102222.41;;;5.89;59.75
40788;BME280;26497;52.494;7.546;2023-01-29T01:42:27;102222.31;;;5.88;59.46
40788;BME280;26497;52.494;7.546;2023-01-29T01:44:58;102228.25;;;5.84;59.75
40788;BME280;26497;52.494;7.546;2023-01-29T01:47:36;102221.94;;;6.00;59.47
40788;BME280;26497;52.494;7.546;2023-01-29T01:50:09;102222.25;;;6.06;58.67
40788;BME280;26497;52.494;7.546;2023-01-29T01:52:42;102209.56;;;5.96;59.02
40788;BME280;26497;52.494;7.546;2023-01-29T01:55:14;102214.50;;;6.09;59.16
40788;BME280;26497;52.494;7.546;2023-01-29T01:57:46;102222.97;;;6.23;58.69
40788;BME280;26497;52.494;7.546;2023-01-29T02:00:15;102206.09;;;6.16;58.74
40788;BME280;26497;52.494;7.546;2023-01-29T02:02:45;102218.66;;;6.04;59.04
40788;BME280;26497;52.494;7.546;2023-01-29T02:05:32;102229.94;;;6.23;58.98
40788;BME280;26497;52.494;7.546;2023-01-29T02:08:23;102226.03;;;6.34;58.72
40788;BME280;26497;52.494;7.546;2023-01-29T02:11:11;102223.19;;;6.08;58.97
40788;BME280;26497;52.494;7.546;2023-01-29T02:13:39;102234.06;;;5.98;59.47
40788;BME280;26497;52.494;7.546;2023-01-29T02:16:07;102224.59;;;5.80;60.24
40788;BME280;26497;52.494;7.546;2023-01-29T02:18:34;102230.03;;;5.85;60.45
40788;BME280;26497;52.494;7.546;2023-01-29T02:21:24;102228.44;;;6.08;59.78
40788;BME280;26497;52.494;7.546;2023-01-29T02:24:26;102229.13;;;6.04;59.78
40788;BME280;26497;52.494;7.546;2023-01-29T02:27:08;102228.44;;;6.08;60.02
40788;BME280;26497;52.494;7.546;2023-01-29T02:29:50;102226.53;;;6.04;59.67
40788;BME280;26497;52.494;7.546;2023-01-29T02:32:26;102225.25;;;6.15;59.46
40788;BME280;26497;52.494;7.546;2023-01-29T02:35:09;102230.38;;;6.12;59.58
40788;BME280;26497;52.494;7.546;2023-01-29T02:38:02;102231.19;;;6.11;59.57
40788;BME280;26497;52.494;7.546;2023-01-29T02:40:37;102242.50;;;6.10;59.81
40788;BME280;26497;52.494;7.546;2023-01-29T02:43:15;102244.81;;;6.24;59.79
40788;BME280;26497;52.494;7.546;2023-01-29T02:45:57;102245.13;;;6.10;59.54
40788;BME280;26497;52.494;7.546;2023-01-29T02:48:33;102240.00;;;6.13;59.96
40788;BME280;26497;52.494;7.546;2023-01-29T02:51:06;102225.06;;;6.11;59.96
40788;BME280;26497;52.494;7.546;2023-01-29T02:53:40;102236.13;;;6.25;59.76
40788;BME280;26497;52.494;7.546;2023-01-29T02:56:15;102224.84;;;6.06;59.92
40788;BME280;26497;52.494;7.546;2023-01-29T02:58:46;102235.88;;;5.99;60.73
40788;BME280;26497;52.494;7.546;2023-01-29T03:01:24;102231.41;;;5.96;60.78
40788;BME280;26497;52.494;7.546;2023-01-29T03:03:58;102240.78;;;6.11;60.40
40788;BME280;26497;52.494;7.546;2023-01-29T03:06:32;102227.44;;;6.04;60.15
40788;BME280;26497;52.494;7.546;2023-01-29T03:09:05;102220.06;;;5.96;60.68
40788;BME280;26497;52.494;7.546;2023-01-29T03:11:43;102217.22;;;5.91;60.32
40788;BME280;26497;52.494;7.546;2023-01-29T03:14:15;102210.81;;;6.04;60.74
40788;BME280;26497;52.494;7.546;2023-01-29T03:16:48;102207.22;;;6.02;60.72
40788;BME280;26497;52.494;7.546;2023-01-29T03:19:19;102198.00;;;5.90;60.61
40788;BME280;26497;52.494;7.546;2023-01-29T03:21:50;102193.94;;;5.78;61.49
40788;BME280;26497;52.494;7.546;2023-01-29T03:24:31;102185.59;;;5.86;61.44
40788;BME280;26497;52.494;7.546;2023-01-29T03:27:21;102172.66;;;5.89;60.97
40788;BME280;26497;52.494;7.546;2023-01-29T03:30:11;102172.00;;;6.15;60.65
40788;BME280;26497;52.494;7.546;2023-01-29T03:33:02;102175.25;;;6.30;60.09
40788;BME280;26497;52.494;7.546;2023-01-29T03:35:35;102166.94;;;6.19;60.18
40788;BME280;26497;52.494;7.546;2023-01-29T03:38:06;102171.84;;;6.33;59.93
40788;BME280;26497;52.494;7.546;2023-01-29T03:40:40;102165.19;;;6.41;59.75
40788;BME280;26497;52.494;7.546;2023-01-29T03:43:22;102158.00;;;6.36;59.90
40788;BME280;26497;52.494;7.546;2023-01-29T03:45:59;102157.91;;;6.34;59.86
40788;BME280;26497;52.494;7.546;2023-01-29T03:48:34;102150.84;;;6.31;60.08
40788;BME280;26497;52.494;7.546;2023-01-29T03:51:14;102158.38;;;6.02;60.99
40788;BME280;26497;52.494;7.546;2023-01-29T03:53:47;102155.81;;;6.04;61.17
40788;BME280;26497;52.494;7.546;2023-01-29T03:56:27;102160.69;;;6.16;61.05
40788;BME280;26497;52.494;7.546;2023-01-29T03:59:04;102156.56;;;6.23;60.83
40788;BME280;26497;52.494;7.546;2023-01-29T04:01:42;102144.06;;;6.15;61.11
40788;BME280;26497;52.494;7.546;2023-01-29T04:04:18;102128.47;;;6.18;61.31
40788;BME280;26497;52.494;7.546;2023-01-29T04:06:49;102136.19;;;6.15;61.12
40788;BME280;26497;52.494;7.546;2023-01-29T04:09:28;102128.19;;;6.12;61.30
40788;BME280;26497;52.494;7.546;2023-01-29T04:12:03;102130.34;;;5.80;62.06
40788;BME280;26497;52.494;7.546;2023-01-29T04:14:32;102129.66;;;5.84;62.27
40788;BME280;26497;52.494;7.546;2023-01-29T04:17:02;102126.38;;;5.90;62.09
40788;BME280;26497;52.494;7.546;2023-01-29T04:19:33;102121.75;;;6.04;62.10
40788;BME280;26497;52.494;7.546;2023-01-29T04:22:06;102122.78;;;6.08;61.85
40788;BME280;26497;52.494;7.546;2023-01-29T04:24:36;102128.28;;;6.14;60.86
40788;BME280;26497;52.494;7.546;2023-01-29T04:27:18;102128.00;;;5.86;62.24
40788;BME280;26497;52.494;7.546;2023-01-29T04:30:02;102116.47;;;5.61;63.42
40788;BME280;26497;52.494;7.546;2023-01-29T04:32:42;102112.03;;;5.80;62.97
40788;BME280;26497;52.494;7.546;2023-01-29T04:35:28;102113.16;;;5.87;62.58
40788;BME280;26497;52.494;7.546;2023-01-29T04:38:07;102106.16;;;6.07;62.22
40788;BME280;26497;52.494;7.546;2023-01-29T04:40:48;102104.59;;;6.11;61.73
40788;BME280;26497;52.494;7.546;2023-01-29T04:43:22;102099.22;;;6.08;61.89
40788;BME280;26497;52.494;7.546;2023-01-29T04:46:07;102102.50;;;6.25;61.41
40788;BME280;26497;52.494;7.546;2023-01-29T04:48:50;102092.81;;;6.01;61.98
40788;BME280;26497;52.494;7.546;2023-01-29T04:51:26;102105.41;;;6.10;61.78
40788;BME280;26497;52.494;7.546;2023-01-29T04:54:03;102100.00;;;6.28;61.16
40788;BME280;26497;52.494;7.546;2023-01-29T04:56:40;102103.88;;;6.15;61.32
40788;BME280;26497;52.494;7.546;2023-01-29T04:59:13;102099.13;;;6.27;61.14
40788;BME280;26497;52.494;7.546;2023-01-29T05:01:43;102106.78;;;5.80;62.90
40788;BME280;26497;52.494;7.546;2023-01-29T05:04:13;102109.53;;;6.26;62.01
40788;BME280;26497;52.494;7.546;2023-01-29T05:06:42;102104.50;;;6.09;62.11
40788;BME280;26497;52.494;7.546;2023-01-29T05:09:12;102102.09;;;6.14;62.14
40788;BME280;26497;52.494;7.546;2023-01-29T05:11:41;102102.72;;;6.08;62.34
40788;BME280;26497;52.494;7.546;2023-01-29T05:14:11;102096.19;;;6.19;62.34
40788;BME280;26497;52.494;7.546;2023-01-29T05:16:42;102103.09;;;6.17;62.16
40788;BME280;26497;52.494;7.546;2023-01-29T05:19:14;102090.81;;;6.16;61.91
40788;BME280;26497;52.494;7.546;2023-01-29T05:21:45;102088.78;;;5.88;62.63
40788;BME280;26497;52.494;7.546;2023-01-29T05:24:16;102090.63;;;5.90;62.78
40788;BME280;26497;52.494;7.546;2023-01-29T05:26:45;102103.03;;;6.16;62.31
40788;BME280;26497;52.494;7.546;2023-01-29T05:29:30;102105.66;;;6.16;61.55
40788;BME280;26497;52.494;7.546;2023-01-29T05:31:57;102100.94;;;6.07;62.07
40788;BME280;26497;52.494;7.546;2023-01-29T05:34:24;102100.31;;;6.13;62.00
40788;BME280;26497;52.494;7.546;2023-01-29T05:36:53;102101.84;;;6.08;61.84
40788;BME280;26497;52.494;7.546;2023-01-29T05:39:20;102097.84;;;5.96;62.21
40788;BME280;26497;52.494;7.546;2023-01-29T05:41:47;102089.09;;;5.96;62.17
40788;BME280;26497;52.494;7.546;2023-01-29T05:44:14;102085.22;;;6.07;61.83
40788;BME280;26497;52.494;7.546;2023-01-29T05:46:41;102082.13;;;5.96;62.15
40788;BME280;26497;52.494;7.546;2023-01-29T05:49:09;102077.34;;;5.86;62.46
40788;BME280;26497;52.494;7.546;2023-01-29T05:51:36;102076.47;;;6.07;61.95
40788;BME280;26497;52.494;7.546;2023-01-29T05:54:05;102082.72;;;6.10;62.08
40788;BME280;26497;52.494;7.546;2023-01-29T05:56:31;102084.06;;;6.44;60.88
40788;BME280;26497;52.494;7.546;2023-01-29T05:58:58;102089.56;;;6.07;61.55
40788;BME280;26497;52.494;7.546;2023-01-29T06:01:25;102088.47;;;6.01;61.77
40788;BME280;26497;52.494;7.546;2023-01-29T06:03:52;102080.34;;;6.16;61.94
40788;BME280;26497;52.494;7.546;2023-01-29T06:06:19;102078.38;;;5.89;62.21
40788;BME280;26497;52.494;7.546;2023-01-29T06:08:46;102090.41;;;6.05;62.05
40788;BME280;26497;52.494;7.546;2023-01-29T06:11:15;102078.34;;;6.32;61.21
40788;BME280;26497;52.494;7.546;2023-01-29T06:13:44;102083.91;;;6.18;61.23
40788;BME280;26497;52.494;7.546;2023-01-29T06:16:12;102073.44;;;6.18;61.26
40788;BME280;26497;52.494;7.546;2023-01-29T06:18:40;102082.72;;;6.31;61.35
40788;BME280;26497;52.494;7.546;2023-01-29T06:21:10;102089.88;;;6.14;61.31
40788;BME280;26497;52.494;7.546;2023-01-29T06:23:38;102079.31;;;6.34;61.03
40788;BME280;26497;52.494;7.546;2023-01-29T06:26:08;102082.16;;;6.40;60.54
40788;BME280;26497;52.494;7.546;2023-01-29T06:28:37;102075.38;;;6.45;60.16
40788;BME280;26497;52.494;7.546;2023-01-29T06:31:06;102076.06;;;6.18;60.88
40788;BME280;26497;52.494;7.546;2023-01-29T06:33:33;102078.69;;;6.18;61.38
40788;BME280;26497;52.494;7.546;2023-01-29T06:36:03;102080.00;;;6.30;60.89
40788;BME280;26497;52.494;7.546;2023-01-29T06:38:30;102073.59;;;6.44;60.62
40788;BME280;26497;52.494;7.546;2023-01-29T06:40:57;102068.56;;;6.28;60.72
40788;BME280;26497;52.494;7.546;2023-01-29T06:43:24;102069.16;;;6.20;60.89
40788;BME280;26497;52.494;7.546;2023-01-29T06:45:55;102075.66;;;6.08;61.46
40788;BME280;26497;52.494;7.546;2023-01-29T06:48:23;102077.69;;;6.15;61.58
40788;BME280;26497;52.494;7.546;2023-01-29T06:50:50;102065.72;;;6.22;61.04
40788;BME280;26497;52.494;7.546;2023-01-29T06:53:20;102055.78;;;6.36;60.87
40788;BME280;26497;52.494;7.546;2023-01-29T06:55:51;102060.47;;;6.22;61.17
40788;BME280;26497;52.494;7.546;2023-01-29T06:58:19;102069.31;;;6.02;61.48
40788;BME280;26497;52.494;7.546;2023-01-29T07:00:46;102068.59;;;5.85;62.17
40788;BME280;26497;52.494;7.546;2023-01-29T07:03:14;102066.38;;;6.16;61.32
40788;BME280;26497;52.494;7.546;2023-01-29T07:05:41;102083.53;;;6.09;61.43
40788;BME280;26497;52.494;7.546;2023-01-29T07:08:08;102069.22;;;5.80;62.62
40788;BME280;26497;52.494;7.546;2023-01-29T07:10:35;102068.72;;;5.88;61.98
40788;BME280;26497;52.494;7.546;2023-01-29T07:13:02;102061.25;;;5.76;62.21
40788;BME280;26497;52.494;7.546;2023-01-29T07:15:29;102064.13;;;5.83;62.59
40788;BME280;26497;52.494;7.546;2023-01-29T07:17:58;102060.81;;;5.66;62.49
40788;BME280;26497;52.494;7.546;2023-01-29T07:20:28;102050.63;;;5.73;62.59
40788;BME280;26497;52.494;7.546;2023-01-29T07:22:57;102054.88;;;5.70;62.47
40788;BME280;26497;52.494;7.546;2023-01-29T07:25:24;102057.09;;;5.60;63.17
40788;BME280;26497;52.494;7.546;2023-01-29T07:27:51;102054.56;;;5.83;62.65
40788;BME280;26497;52.494;7.546;2023-01-29T07:30:18;102056.47;;;5.87;62.07
40788;BME280;26497;52.494;7.546;2023-01-29T07:32:46;102069.56;;;6.09;61.42
40788;BME280;26497;52.494;7.546;2023-01-29T07:35:13;102059.25;;;6.13;61.08
40788;BME280;26497;52.494;7.546;2023-01-29T07:37:41;102057.84;;;6.22;60.71
40788;BME280;26497;52.494;7.546;2023-01-29T07:40:10;102065.41;;;5.93;61.74
40788;BME280;26497;52.494;7.546;2023-01-29T07:42:37;102062.50;;;5.65;62.49
40788;BME280;26497;52.494;7.546;2023-01-29T07:45:08;102059.41;;;5.74;62.55
40788;BME280;26497;52.494;7.546;2023-01-29T07:47:36;102060.94;;;5.69;62.29
40788;BME280;26497;52.494;7.546;2023-01-29T07:50:04;102052.00;;;5.64;63.23
40788;BME280;26497;52.494;7.546;2023-01-29T07:52:32;102052.94;;;5.66;62.88
40788;BME280;26497;52.494;7.546;2023-01-29T07:55:01;102029.81;;;5.76;62.74
40788;BME280;26497;52.494;7.546;2023-01-29T07:57:28;102031.16;;;5.88;61.92
40788;BME280;26497;52.494;7.546;2023-01-29T07:59:55;102019.19;;;5.72;62.09
40788;BME280;26497;52.494;7.546;2023-01-29T08:02:22;102013.38;;;5.79;62.52
40788;BME280;26497;52.494;7.546;2023-01-29T08:04:49;102001.09;;;5.57;62.67
40788;BME280;26497;52.494;7.546;2023-01-29T08:07:16;102000.03;;;5.73;62.82
40788;BME280;26497;52.494;7.546;2023-01-29T08:09:43;102010.28;;;5.68;62.64
40788;BME280;26497;52.494;7.546;2023-01-29T08:12:11;102018.44;;;5.97;61.88
40788;BME280;26497;52.494;7.546;2023-01-29T08:14:39;102016.94;;;5.81;62.16
40788;BME280;26497;52.494;7.546;2023-01-29T08:17:06;102014.31;;;6.02;61.77
40788;BME280;26497;52.494;7.546;2023-01-29T08:19:33;102023.25;;;5.86;61.62
40788;BME280;26497;52.494;7.546;2023-01-29T08:22:00;102022.31;;;5.84;61.77
40788;BME280;26497;52.494;7.546;2023-01-29T08:24:27;102005.78;;;6.08;60.81
40788;BME280;26497;52.494;7.546;2023-01-29T08:26:54;102007.34;;;6.26;60.34
40788;BME280;26497;52.494;7.546;2023-01-29T08:29:22;102011.72;;;6.48;59.78
40788;BME280;26497;52.494;7.546;2023-01-29T08:31:52;102018.19;;;6.58;59.35
40788;BME280;26497;52.494;7.546;2023-01-29T08:34:19;102013.63;;;6.52;59.30
40788;BME280;26497;52.494;7.546;2023-01-29T08:36:46;102014.22;;;6.45;59.58
40788;BME280;26497;52.494;7.546;2023-01-29T08:39:13;102011.72;;;6.25;59.94
40788;BME280;26497;52.494;7.546;2023-01-29T08:41:40;102018.75;;;6.26;60.13
40788;BME280;26497;52.494;7.546;2023-01-29T08:44:07;102007.78;;;6.37;59.75
40788;BME280;26497;52.494;7.546;2023-01-29T08:46:36;102008.63;;;6.36;59.95
40788;BME280;26497;52.494;7.546;2023-01-29T08:49:05;102006.03;;;6.37;59.43
40788;BME280;26497;52.494;7.546;2023-01-29T08:51:32;102014.03;;;6.17;59.98
40788;BME280;26497;52.494;7.546;2023-01-29T08:53:59;102021.16;;;6.22;60.11
40788;BME280;26497;52.494;7.546;2023-01-29T08:56:26;102011.38;;;6.63;59.67
40788;BME280;26497;52.494;7.546;2023-01-29T08:58:53;101998.31;;;6.40;58.90
40788;BME280;26497;52.494;7.546;2023-01-29T09:01:20;101999.84;;;6.35;59.96
40788;BME280;26497;52.494;7.546;2023-01-29T09:03:49;102000.28;;;6.46;59.83
40788;BME280;26497;52.494;7.546;2023-01-29T09:06:17;101996.00;;;6.72;58.85
40788;BME280;26497;52.494;7.546;2023-01-29T09:08:44;102003.84;;;6.48;58.87
40788;BME280;26497;52.494;7.546;2023-01-29T09:11:11;101997.84;;;6.28;59.04
40788;BME280;26497;52.494;7.546;2023-01-29T09:13:38;102011.34;;;6.16;60.17
40788;BME280;26497;52.494;7.546;2023-01-29T09:16:06;102009.50;;;6.13;60.05
40788;BME280;26497;52.494;7.546;2023-01-29T09:18:33;102009.84;;;6.23;59.50
40788;BME280;26497;52.494;7.546;2023-01-29T09:21:01;102017.06;;;6.51;59.20
40788;BME280;26497;52.494;7.546;2023-01-29T09:23:29;102022.91;;;6.44;58.90
40788;BME280;26497;52.494;7.546;2023-01-29T09:25:56;102021.50;;;6.29;59.08
40788;BME280;26497;52.494;7.546;2023-01-29T09:28:23;102022.25;;;6.27;59.80
40788;BME280;26497;52.494;7.546;2023-01-29T09:30:51;102013.88;;;6.36;59.49
40788;BME280;26497;52.494;7.546;2023-01-29T09:33:18;102010.75;;;6.23;59.69
40788;BME280;26497;52.494;7.546;2023-01-29T09:35:45;102005.09;;;6.35;59.15
40788;BME280;26497;52.494;7.546;2023-01-29T09:38:14;102008.19;;;6.47;59.48
40788;BME280;26497;52.494;7.546;2023-01-29T09:40:51;102010.81;;;6.47;58.82
40788;BME280;26497;52.494;7.546;2023-01-29T09:43:25;102006.97;;;6.62;59.02
40788;BME280;26497;52.494;7.546;2023-01-29T09:45:57;101996.50;;;6.62;58.64
40788;BME280;26497;52.494;7.546;2023-01-29T09:48:29;102008.78;;;6.63;58.57
40788;BME280;26497;52.494;7.546;2023-01-29T09:51:02;101992.78;;;6.55;59.03
40788;BME280;26497;52.494;7.546;2023-01-29T09:53:38;101989.25;;;6.55;58.87
40788;BME280;26497;52.494;7.546;2023-01-29T09:56:11;101978.19;;;6.39;58.81
40788;BME280;26497;52.494;7.546;2023-01-29T09:58:42;101977.94;;;6.33;59.91
40788;BME280;26497;52.494;7.546;2023-01-29T10:01:26;101967.47;;;6.33;59.55
40788;BME280;26497;52.494;7.546;2023-01-29T10:04:19;101955.38;;;6.37;59.64
40788;BME280;26497;52.494;7.546;2023-01-29T10:07:03;101959.94;;;6.42;59.12
40788;BME280;26497;52.494;7.546;2023-01-29T10:13:05;101940.56;;;6.14;59.84
40788;BME280;26497;52.494;7.546;2023-01-29T10:15:57;101952.03;;;6.41;60.04
40788;BME280;26497;52.494;7.546;2023-01-29T10:19:15;101949.91;;;6.55;58.81
40788;BME280;26497;52.494;7.546;2023-01-29T10:21:55;101949.94;;;6.32;59.76
40788;BME280;26497;52.494;7.546;2023-01-29T10:24:36;101947.53;;;6.61;58.99
40788;BME280;26497;52.494;7.546;2023-01-29T10:27:12;101943.84;;;6.56;58.35
40788;BME280;26497;52.494;7.546;2023-01-29T10:29:42;101938.25;;;6.46;58.84
40788;BME280;26497;52.494;7.546;2023-01-29T10:32:15;101937.50;;;6.49;59.11
40788;BME280;26497;52.494;7.546;2023-01-29T10:34:47;101932.84;;;6.66;58.72
40788;BME280;26497;52.494;7.546;2023-01-29T10:37:18;101921.34;;;6.38;59.10
40788;BME280;26497;52.494;7.546;2023-01-29T10:39:48;101924.59;;;6.79;58.54
40788;BME280;26497;52.494;7.546;2023-01-29T10:42:27;101917.25;;;6.95;57.45
40788;BME280;26497;52.494;7.546;2023-01-29T10:45:09;101909.69;;;6.78;57.59
40788;BME280;26497;52.494;7.546;2023-01-29T10:48:09;101903.41;;;6.99;56.54
40788;BME280;26497;52.494;7.546;2023-01-29T10:50:48;101896.94;;;6.89;57.06
40788;BME280;26497;52.494;7.546;2023-01-29T10:53:33;101906.34;;;6.83;57.67
40788;BME280;26497;52.494;7.546;2023-01-29T10:56:26;101899.53;;;6.88;57.80
40788;BME280;26497;52.494;7.546;2023-01-29T10:59:00;101890.19;;;6.96;56.97
40788;BME280;26497;52.494;7.546;2023-01-29T11:01:30;101899.53;;;7.14;56.79
40788;BME280;26497;52.494;7.546;2023-01-29T11:03:59;101892.72;;;7.19;56.85
40788;BME280;26497;52.494;7.546;2023-01-29T11:06:30;101889.19;;;7.18;56.06
40788;BME280;26497;52.494;7.546;2023-01-29T11:09:04;101894.22;;;7.12;56.46
40788;BME280;26497;52.494;7.546;2023-01-29T11:11:38;101890.72;;;7.12;56.37
40788;BME280;26497;52.494;7.546;2023-01-29T11:14:13;101883.91;;;7.17;56.38
40788;BME280;26497;52.494;7.546;2023-01-29T11:16:43;101871.13;;;7.02;56.62
40788;BME280;26497;52.494;7.546;2023-01-29T11:19:12;101867.56;;;7.00;57.07
40788;BME280;26497;52.494;7.546;2023-01-29T11:21:55;101863.22;;;7.00;56.78
40788;BME280;26497;52.494;7.546;2023-01-29T11:24:23;101858.69;;;7.22;56.69
40788;BME280;26497;52.494;7.546;2023-01-29T11:26:53;101850.00;;;7.23;56.12
40788;BME280;26497;52.494;7.546;2023-01-29T11:29:33;101850.44;;;7.10;56.90
40788;BME280;26497;52.494;7.546;2023-01-29T11:32:03;101847.63;;;7.05;57.15
40788;BME280;26497;52.494;7.546;2023-01-29T11:34:31;101833.75;;;7.36;56.83
40788;BME280;26497;52.494;7.546;2023-01-29T11:37:00;101837.41;;;7.42;55.78
40788;BME280;26497;52.494;7.546;2023-01-29T11:39:29;101834.03;;;7.17;55.93
40788;BME280;26497;52.494;7.546;2023-01-29T11:41:58;101836.47;;;7.40;56.31
40788;BME280;26497;52.494;7.546;2023-01-29T11:44:30;101830.19;;;7.34;56.33
40788;BME280;26497;52.494;7.546;2023-01-29T11:47:15;101822.81;;;7.21;56.16
40788;BME280;26497;52.494;7.546;2023-01-29T11:49:46;101822.75;;;7.19;57.04
40788;BME280;26497;52.494;7.546;2023-01-29T11:52:17;101817.03;;;7.33;56.91
40788;BME280;26497;52.494;7.546;2023-01-29T11:54:48;101815.72;;;7.18;57.06
40788;BME280;26497;52.494;7.546;2023-01-29T11:57:25;101810.22;;;7.38;57.56
40788;BME280;26497;52.494;7.546;2023-01-29T11:59:56;101803.53;;;7.20;57.58
40788;BME280;26497;52.494;7.546;2023-01-29T12:02:35;101804.38;;;6.92;58.87
40788;BME280;26497;52.494;7.546;2023-01-29T12:05:12;101789.81;;;7.02;58.89
40788;BME280;26497;52.494;7.546;2023-01-29T12:07:41;101793.69;;;6.60;60.45
40788;BME280;26497;52.494;7.546;2023-01-29T12:10:30;101794.47;;;6.83;61.06
40788;BME280;26497;52.494;7.546;2023-01-29T12:13:04;101777.72;;;7.05;60.82
40788;BME280;26497;52.494;7.546;2023-01-29T12:15:33;101775.97;;;7.06;60.49
40788;BME280;26497;52.494;7.546;2023-01-29T12:18:06;101773.78;;;7.20;60.49
40788;BME280;26497;52.494;7.546;2023-01-29T12:20:41;101772.06;;;6.93;61.56
40788;BME280;26497;52.494;7.546;2023-01-29T12:23:21;101772.06;;;6.93;62.21
40788;BME280;26497;52.494;7.546;2023-01-29T12:25:59;101767.13;;;7.02;62.23
40788;BME280;26497;52.494;7.546;2023-01-29T12:28:41;101764.97;;;6.63;64.27
40788;BME280;26497;52.494;7.546;2023-01-29T12:31:27;101753.84;;;6.98;63.89
40788;BME280;26497;52.494;7.546;2023-01-29T12:34:04;101771.47;;;7.02;63.32
40788;BME280;26497;52.494;7.546;2023-01-29T12:36:39;101742.09;;;6.85;64.30
40788;BME280;26497;52.494;7.546;2023-01-29T12:39:09;101744.34;;;7.01;64.34
40788;BME280;26497;52.494;7.546;2023-01-29T12:41:41;101744.03;;;6.64;65.50
40788;BME280;26497;52.494;7.546;2023-01-29T12:44:15;101735.81;;;6.54;66.67
40788;BME280;26497;52.494;7.546;2023-01-29T12:46:48;101727.84;;;6.76;66.28
40788;BME280;26497;52.494;7.546;2023-01-29T12:49:27;101732.56;;;6.61;66.87
40788;BME280;26497;52.494;7.546;2023-01-29T12:52:00;101730.69;;;6.57;67.12
40788;BME280;26497;52.494;7.546;2023-01-29T12:54:36;101727.66;;;6.44;67.87
40788;BME280;26497;52.494;7.546;2023-01-29T12:57:13;101714.88;;;6.28;68.78
40788;BME280;26497;52.494;7.546;2023-01-29T12:59:50;101721.00;;;6.28;69.77
40788;BME280;26497;52.494;7.546;2023-01-29T13:02:30;101707.50;;;6.42;69.14
40788;BME280;26497;52.494;7.546;2023-01-29T13:05:03;101698.81;;;6.17;70.59
40788;BME280;26497;52.494;7.546;2023-01-29T13:07:37;101697.56;;;6.33;70.68
40788;BME280;26497;52.494;7.546;2023-01-29T13:10:13;101700.19;;;6.33;69.94
40788;BME280;26497;52.494;7.546;2023-01-29T13:12:52;101695.78;;;6.06;70.96
40788;BME280;26497;52.494;7.546;2023-01-29T13:15:23;101683.84;;;6.14;71.52
40788;BME280;26497;52.494;7.546;2023-01-29T13:18:01;101685.41;;;6.09;71.56
40788;BME280;26497;52.494;7.546;2023-01-29T13:20:34;101676.81;;;6.39;70.42
40788;BME280;26497;52.494;7.546;2023-01-29T13:23:16;101673.56;;;6.46;70.38
40788;BME280;26497;52.494;7.546;2023-01-29T13:25:44;101682.41;;;6.77;69.03
40788;BME280;26497;52.494;7.546;2023-01-29T13:28:16;101677.75;;;6.69;68.77
40788;BME280;26497;52.494;7.546;2023-01-29T13:30:44;101679.94;;;6.82;68.60